createdAt,value
2019-05-07T00:01:23.241Z,96233.80
2019-05-07T00:03:55.005Z,96233.30
2019-05-07T00:06:26.788Z,96234.81
2019-05-07T00:08:58.268Z,96224.27
2019-05-07T00:11:29.691Z,96228.28
2019-05-07T00:14:03.031Z,96226.45
2019-05-07T00:16:33.817Z,96230.98
2019-05-07T00:19:07.189Z,96228.44
2019-05-07T00:21:38.575Z,96225.36
2019-05-07T00:24:13.325Z,96221.55
2019-05-07T00:26:44.820Z,96226.27
2019-05-07T00:29:16.381Z,96219.09
2019-05-07T00:31:47.640Z,96215.36
2019-05-07T00:34:21.999Z,96218.09
2019-05-07T00:37:02.190Z,96220.67
2019-05-07T00:39:55.408Z,96216.33
2019-05-07T00:42:53.016Z,96215.67
2019-05-07T00:45:34.298Z,96219.05
2019-05-07T00:48:05.831Z,96224.30
2019-05-07T00:50:38.926Z,96228.83
2019-05-07T00:53:10.259Z,96230.59
2019-05-07T00:55:42.304Z,96225.84
2019-05-07T00:58:13.796Z,96226.94
2019-05-07T01:00:45.023Z,96233.31
2019-05-07T01:03:16.232Z,96239.23
2019-05-07T01:05:47.470Z,96234.72
2019-05-07T01:08:18.703Z,96232.36
2019-05-07T01:10:52.630Z,96239.32
2019-05-07T01:13:25.939Z,96239.81
2019-05-07T01:15:57.601Z,96234.34
2019-05-07T01:18:29.183Z,96235.27
2019-05-07T01:21:02.402Z,96234.21
2019-05-07T01:23:33.910Z,96235.28
2019-05-07T01:26:05.428Z,96235.20
2019-05-07T01:28:55.030Z,96229.77
2019-05-07T01:31:28.510Z,96235.50
2019-05-07T01:34:22.961Z,96235.11
2019-05-07T01:36:53.976Z,96235.72
2019-05-07T01:39:25.160Z,96236.41
2019-05-07T01:41:56.558Z,96238.68
2019-05-07T01:44:28.121Z,96243.92
2019-05-07T01:46:59.502Z,96243.53
2019-05-07T01:49:33.137Z,96242.86
2019-05-07T01:52:05.584Z,96247.66
2019-05-07T01:54:36.793Z,96248.19
2019-05-07T01:57:08.006Z,96243.53
2019-05-07T01:59:39.404Z,96247.92
2019-05-07T02:02:31.922Z,96249.94
2019-05-07T02:05:13.904Z,96252.47
2019-05-07T02:07:52.128Z,96251.66
2019-05-07T02:10:38.130Z,96252.87
2019-05-07T02:13:09.584Z,96256.41
2019-05-07T02:15:42.842Z,96254.25
2019-05-07T02:18:14.172Z,96254.56
2019-05-07T02:20:45.780Z,96259.12
2019-05-07T02:23:17.073Z,96259.31
2019-05-07T02:25:48.736Z,96258.20
2019-05-07T02:28:22.274Z,96258.20
2019-05-07T02:30:54.061Z,96254.69
2019-05-07T02:33:27.821Z,96255.32
2019-05-07T02:35:59.394Z,96254.58
2019-05-07T02:38:37.488Z,96258.30
2019-05-07T02:41:18.441Z,96261.43
2019-05-07T02:43:49.687Z,96265.59
2019-05-07T02:46:52.882Z,96264.56
2019-05-07T02:49:33.058Z,96258.14
2019-05-07T02:52:13.474Z,96261.27
2019-05-07T02:55:03.924Z,96253.08
2019-05-07T02:57:35.833Z,96252.04
2019-05-07T03:00:07.457Z,96252.32
2019-05-07T03:02:38.725Z,96255.16
2019-05-07T03:05:13.676Z,96255.91
2019-05-07T03:07:43.665Z,96261.78
2019-05-07T03:10:15.095Z,96264.46
2019-05-07T03:12:46.510Z,96261.69
2019-05-07T03:15:17.995Z,96267.59
2019-05-07T03:17:49.593Z,96260.22
2019-05-07T03:20:25.403Z,96258.63
2019-05-07T03:22:57.949Z,96254.46
2019-05-07T03:25:34.442Z,96254.67
2019-05-07T03:28:05.910Z,96259.82
2019-05-07T03:30:56.150Z,96260.41
2019-05-07T03:33:36.605Z,96256.25
2019-05-07T03:36:07.968Z,96249.98
2019-05-07T03:38:39.701Z,96250.14
2019-05-07T03:41:12.859Z,96250.91
2019-05-07T03:43:46.966Z,96248.84
2019-05-07T03:46:23.206Z,96240.16
2019-05-07T03:48:53.266Z,96240.42
2019-05-07T03:51:24.645Z,96246.39
2019-05-07T03:53:55.921Z,96247.67
2019-05-07T03:56:27.153Z,96246.26
2019-05-07T03:58:58.598Z,96246.70
2019-05-07T04:01:33.443Z,96245.07
2019-05-07T04:04:05.760Z,96244.92
2019-05-07T04:06:37.596Z,96246.45
2019-05-07T04:09:08.971Z,96244.48
2019-05-07T04:11:43.080Z,96245.28
2019-05-07T04:14:13.792Z,96250.57
2019-05-07T04:16:45.263Z,96251.19
2019-05-07T04:19:16.497Z,96250.83
2019-05-07T04:21:47.708Z,96246.79
2019-05-07T04:24:34.457Z,96246.05
2019-05-07T04:27:16.162Z,96253.57
2019-05-07T04:29:47.394Z,96261.31
2019-05-07T04:32:23.027Z,96261.67
2019-05-07T04:35:03.824Z,96261.16
2019-05-07T04:37:35.521Z,96259.75
2019-05-07T04:40:06.923Z,96261.85
2019-05-07T04:42:38.703Z,96264.55
2019-05-07T04:45:13.576Z,96263.05
2019-05-07T04:47:47.548Z,96265.90
2019-05-07T04:50:37.257Z,96259.56
2019-05-07T04:52:54.067Z,96260.91
2019-05-07T04:55:24.759Z,96264.39
2019-05-07T04:57:56.099Z,96260.91
2019-05-07T05:00:27.573Z,96265.98
2019-05-07T05:03:05.754Z,96266.50
2019-05-07T05:05:36.993Z,96271.80
2019-05-07T05:08:08.218Z,96271.12
2019-05-07T05:10:39.483Z,96273.12
2019-05-07T05:13:12.978Z,96274.34
2019-05-07T05:15:43.733Z,96275.65
2019-05-07T05:18:15.306Z,96276.55
2019-05-07T05:21:12.172Z,96279.39
2019-05-07T05:24:08.412Z,96275.20
2019-05-07T05:26:41.844Z,96278.17
2019-05-07T05:29:12.897Z,96272.59
2019-05-07T05:31:44.115Z,96277.89
2019-05-07T05:34:15.861Z,96276.98
2019-05-07T05:36:47.457Z,96274.36
2019-05-07T05:39:18.799Z,96269.66
2019-05-07T05:41:53.830Z,96279.13
2019-05-07T05:44:32.059Z,96280.53
2019-05-07T05:47:03.273Z,96279.71
2019-05-07T05:49:34.526Z,96285.22
2019-05-07T05:52:22.254Z,96282.02
2019-05-07T05:55:02.526Z,96286.30
2019-05-07T05:57:52.011Z,96287.56
2019-05-07T06:00:42.316Z,96282.75
2019-05-07T06:03:25.925Z,96283.05
2019-05-07T06:06:12.751Z,96282.70
2019-05-07T06:09:09.387Z,96282.48
2019-05-07T06:12:03.450Z,96281.58
2019-05-07T06:14:44.294Z,96280.28
2019-05-07T06:17:42.364Z,96281.07
2019-05-07T06:20:32.546Z,96276.50
2019-05-07T06:23:32.960Z,96274.92
2019-05-07T06:26:05.468Z,96275.49
2019-05-07T06:28:37.134Z,96285.56
2019-05-07T06:31:08.828Z,96283.33
2019-05-07T06:33:40.082Z,96281.98
2019-05-07T06:36:12.546Z,96283.17
2019-05-07T06:38:53.085Z,96277.55
2019-05-07T06:41:42.156Z,96279.50
2019-05-07T06:44:18.042Z,96273.89
2019-05-07T06:46:52.656Z,96279.91
2019-05-07T06:49:24.208Z,96267.61
2019-05-07T06:51:55.485Z,96266.72
2019-05-07T06:54:26.723Z,96266.27
2019-05-07T06:56:58.122Z,96256.19
2019-05-07T06:59:43.599Z,96258.48
2019-05-07T07:02:36.879Z,96254.55
2019-05-07T07:11:38.145Z,96259.89
2019-05-07T07:14:09.360Z,96254.87
2019-05-07T07:16:42.039Z,96260.55
2019-05-07T07:19:13.468Z,96260.63
2019-05-07T07:21:45.402Z,96257.30
2019-05-07T07:24:16.992Z,96259.24
2019-05-07T07:26:49.111Z,96253.88
2019-05-07T07:29:24.072Z,96264.31
2019-05-07T07:31:58.558Z,96259.72
2019-05-07T07:34:33.283Z,96262.31
2019-05-07T07:37:19.017Z,96258.80
2019-05-07T07:39:52.447Z,96259.94
2019-05-07T07:42:23.825Z,96261.59
2019-05-07T07:45:14.893Z,96259.93
2019-05-07T07:47:46.880Z,96266.89
2019-05-07T07:50:18.499Z,96260.66
2019-05-07T07:52:53.003Z,96262.59
2019-05-07T07:55:34.128Z,96260.16
2019-05-07T07:58:12.236Z,96259.14
2019-05-07T08:01:05.483Z,96247.92
2019-05-07T08:03:37.917Z,96240.88
2019-05-07T08:06:09.304Z,96242.70
2019-05-07T08:08:42.457Z,96245.27
2019-05-07T08:11:14.080Z,96248.86
2019-05-07T08:13:45.806Z,96241.78
2019-05-07T08:16:17.015Z,96239.27
2019-05-07T08:18:48.632Z,96233.20
2019-05-07T08:21:19.837Z,96245.66
2019-05-07T08:23:52.859Z,96245.14
2019-05-07T08:26:24.400Z,96243.99
2019-05-07T08:28:56.084Z,96240.14
2019-05-07T08:31:42.466Z,96240.70
2019-05-07T08:34:27.829Z,96237.09
2019-05-07T08:36:59.334Z,96238.98
2019-05-07T08:39:32.554Z,96239.70
2019-05-07T08:42:04.501Z,96232.30
2019-05-07T08:44:52.052Z,96234.96
2019-05-07T08:47:31.928Z,96232.00
2019-05-07T08:50:03.356Z,96222.25
2019-05-07T08:52:34.551Z,96218.87
2019-05-07T08:55:07.587Z,96221.75
2019-05-07T08:57:38.992Z,96224.09
2019-05-07T09:00:14.288Z,96220.30
2019-05-07T09:02:47.070Z,96226.24
2019-05-07T09:05:18.519Z,96218.15
2019-05-07T09:07:51.640Z,96228.37
2019-05-07T09:10:23.030Z,96229.17
2019-05-07T09:12:54.441Z,96222.18
2019-05-07T09:15:25.820Z,96224.06
2019-05-07T09:17:57.382Z,96223.30
2019-05-07T09:20:28.686Z,96227.73
2019-05-07T09:23:02.151Z,96215.76
2019-05-07T09:25:36.584Z,96213.11
2019-05-07T09:28:08.750Z,96217.43
2019-05-07T09:30:58.722Z,96212.33
2019-05-07T09:33:34.197Z,96212.84
2019-05-07T09:36:08.610Z,96209.95
2019-05-07T09:38:41.844Z,96208.23
2019-05-07T09:41:27.015Z,96205.78
2019-05-07T09:43:59.127Z,96202.86
2019-05-07T09:46:32.533Z,96204.39
2019-05-07T09:49:03.587Z,96195.66
2019-05-07T09:51:35.002Z,96199.61
2019-05-07T09:54:06.350Z,96201.48
2019-05-07T09:56:37.630Z,96198.09
2019-05-07T09:59:09.054Z,96206.02
2019-05-07T10:01:41.708Z,96202.62
2019-05-07T10:04:13.964Z,96203.33
2019-05-07T10:06:46.124Z,96214.61
2019-05-07T10:09:19.256Z,96206.52
2019-05-07T10:11:57.309Z,96217.49
2019-05-07T10:14:30.163Z,96209.59
2019-05-07T10:17:11.955Z,96198.85
2019-05-07T10:19:45.437Z,96194.89
2019-05-07T10:22:17.073Z,96192.95
2019-05-07T10:24:52.098Z,96193.75
2019-05-07T10:27:23.150Z,96187.02
2019-05-07T10:29:54.386Z,96195.19
2019-05-07T10:32:26.019Z,96194.12
2019-05-07T10:34:57.243Z,96200.20
2019-05-07T10:37:28.656Z,96205.90
2019-05-07T10:40:02.850Z,96206.58
2019-05-07T10:42:34.020Z,96206.91
2019-05-07T10:45:17.011Z,96201.69
2019-05-07T10:47:59.978Z,96200.75
2019-05-07T10:50:38.764Z,96213.31
2019-05-07T10:53:04.328Z,96211.88
2019-05-07T10:55:35.546Z,96198.48
2019-05-07T10:58:06.891Z,96197.69
2019-05-07T11:00:38.343Z,96193.24
2019-05-07T11:03:09.940Z,96200.59
2019-05-07T11:05:41.877Z,96204.06
2019-05-07T11:08:13.381Z,96198.42
2019-05-07T11:10:45.482Z,96202.11
2019-05-07T11:13:16.717Z,96202.70
2019-05-07T11:15:51.785Z,96189.46
2019-05-07T11:18:32.419Z,96188.30
2019-05-07T11:21:05.484Z,96187.03
2019-05-07T11:23:36.698Z,96180.99
2019-05-07T11:26:07.880Z,96192.98
2019-05-07T11:28:39.492Z,96192.34
2019-05-07T11:31:12.432Z,96189.88
2019-05-07T11:33:43.922Z,96192.56
2019-05-07T11:36:15.292Z,96183.97
2019-05-07T11:38:47.340Z,96180.47
2019-05-07T11:41:22.924Z,96187.83
2019-05-07T11:44:01.763Z,96179.80
2019-05-07T11:46:44.461Z,96185.03
2019-05-07T11:49:23.041Z,96182.13
2019-05-07T11:52:02.445Z,96180.02
2019-05-07T11:54:34.201Z,96178.52
2019-05-07T11:57:05.579Z,96174.94
2019-05-07T11:59:37.165Z,96169.80
2019-05-07T12:02:08.912Z,96170.73
2019-05-07T12:04:42.223Z,96166.89
2019-05-07T12:07:13.838Z,96166.76
2019-05-07T12:09:45.108Z,96165.59
2019-05-07T12:12:16.498Z,96156.75
2019-05-07T12:14:47.761Z,96153.16
2019-05-07T12:17:19.463Z,96164.00
2019-05-07T12:19:52.684Z,96155.83
2019-05-07T12:22:58.933Z,96158.99
2019-05-07T12:25:32.114Z,96151.54
2019-05-07T12:28:03.449Z,96153.87
2019-05-07T12:31:12.215Z,96163.76
2019-05-07T12:33:52.037Z,96166.53
2019-05-07T12:36:23.233Z,96168.30
2019-05-07T12:38:54.658Z,96160.37
2019-05-07T12:41:30.187Z,96165.52
2019-05-07T12:44:04.670Z,96161.41
2019-05-07T12:46:36.388Z,96160.49
2019-05-07T12:49:07.634Z,96150.77
2019-05-07T12:52:02.937Z,96151.51
2019-05-07T12:54:53.566Z,96150.83
2019-05-07T12:57:24.790Z,96146.47
2019-05-07T12:59:58.794Z,96149.34
2019-05-07T13:02:44.442Z,96146.46
2019-05-07T13:05:16.295Z,96134.78
2019-05-07T13:07:51.463Z,96139.61
2019-05-07T13:10:22.698Z,96138.72
2019-05-07T13:12:53.926Z,96140.62
2019-05-07T13:15:28.086Z,96138.39
2019-05-07T13:17:58.326Z,96133.26
2019-05-07T13:20:29.599Z,96129.72
2019-05-07T13:23:01.001Z,96125.62
2019-05-07T13:25:32.654Z,96124.67
2019-05-07T13:28:03.874Z,96119.83
2019-05-07T13:30:35.298Z,96127.97
2019-05-07T13:33:06.912Z,96119.80
2019-05-07T13:35:38.685Z,96117.54
2019-05-07T13:38:27.653Z,96120.78
2019-05-07T13:41:22.771Z,96118.48
2019-05-07T13:44:16.340Z,96118.36
2019-05-07T13:46:49.603Z,96124.98
2019-05-07T13:49:21.931Z,96120.63
2019-05-07T13:52:03.378Z,96123.80
2019-05-07T13:54:28.705Z,96120.56
2019-05-07T13:57:00.018Z,96119.41
2019-05-07T13:59:31.761Z,96118.05
2019-05-07T14:02:07.471Z,96117.81
2019-05-07T14:04:38.996Z,96118.15
2019-05-07T14:07:12.533Z,96118.09
2019-05-07T14:09:43.851Z,96116.20
2019-05-07T14:12:15.122Z,96117.59
2019-05-07T14:14:47.211Z,96113.20
2019-05-07T14:17:21.915Z,96112.23
2019-05-07T14:19:53.274Z,96112.60
2019-05-07T14:22:24.634Z,96113.64
2019-05-07T14:24:56.071Z,96105.94
2019-05-07T14:27:27.290Z,96110.17
2019-05-07T14:29:58.620Z,96109.67
2019-05-07T14:32:42.349Z,96107.22
2019-05-07T14:35:31.783Z,96109.41
2019-05-07T14:38:06.404Z,96106.19
2019-05-07T14:40:37.791Z,96110.51
2019-05-07T14:43:17.787Z,96102.22
2019-05-07T14:45:48.960Z,96104.05
2019-05-07T14:48:22.414Z,96099.95
2019-05-07T14:50:55.235Z,96103.92
2019-05-07T14:53:27.306Z,96109.67
2019-05-07T14:55:58.986Z,96105.74
2019-05-07T14:58:31.932Z,96103.92
2019-05-07T15:01:03.631Z,96098.68
2019-05-07T15:03:35.380Z,96098.68
2019-05-07T15:06:07.018Z,96098.64
2019-05-07T15:08:38.219Z,96104.22
2019-05-07T15:11:09.786Z,96097.16
2019-05-07T15:13:42.762Z,96089.02
2019-05-07T15:16:14.555Z,96094.20
2019-05-07T15:18:52.933Z,96094.02
2019-05-07T15:21:24.347Z,96089.83
2019-05-07T15:23:57.125Z,96090.63
2019-05-07T15:26:28.592Z,96086.98
2019-05-07T15:29:05.654Z,96081.59
2019-05-07T15:31:59.149Z,96085.45
2019-05-07T15:34:32.653Z,96087.14
2019-05-07T15:37:03.709Z,96080.75
2019-05-07T15:39:35.123Z,96085.63
2019-05-07T15:42:06.472Z,96093.19
2019-05-07T15:44:37.684Z,96084.22
2019-05-07T15:47:13.753Z,96081.65
2019-05-07T15:49:44.942Z,96082.50
2019-05-07T15:52:22.263Z,96081.91
2019-05-07T15:54:53.842Z,96088.06
2019-05-07T15:57:27.590Z,96079.34
2019-05-07T16:00:08.611Z,96083.81
2019-05-07T16:02:45.338Z,96083.64
2019-05-07T16:05:18.369Z,96085.25
2019-05-07T16:07:51.082Z,96078.77
2019-05-07T16:10:23.211Z,96072.88
2019-05-07T16:12:54.897Z,96078.55
2019-05-07T16:15:26.267Z,96075.14
2019-05-07T16:18:02.834Z,96074.58
2019-05-07T16:20:36.054Z,96068.59
2019-05-07T16:23:14.879Z,96065.90
2019-05-07T16:25:42.219Z,96064.03
2019-05-07T16:28:13.666Z,96061.45
2019-05-07T16:30:45.053Z,96063.31
2019-05-07T16:33:16.465Z,96066.00
2019-05-07T16:35:47.916Z,96068.92
2019-05-07T16:38:19.241Z,96066.84
2019-05-07T16:40:52.311Z,96066.61
2019-05-07T16:43:27.014Z,96070.50
2019-05-07T16:45:58.282Z,96066.59
2019-05-07T16:48:29.667Z,96069.66
2019-05-07T16:51:02.343Z,96058.22
2019-05-07T16:53:35.352Z,96067.81
2019-05-07T16:56:06.838Z,96066.41
2019-05-07T16:58:42.988Z,96066.63
2019-05-07T17:01:14.735Z,96064.62
2019-05-07T17:03:53.547Z,96063.14
2019-05-07T17:06:25.331Z,96065.31
2019-05-07T17:09:04.873Z,96059.94
2019-05-07T17:11:36.177Z,95991.58
2019-05-07T17:14:07.508Z,96070.27
2019-05-07T17:16:38.756Z,96067.87
2019-05-07T17:19:11.907Z,96070.80
2019-05-07T17:21:43.691Z,96071.95
2019-05-07T17:24:15.187Z,96069.61
2019-05-07T17:26:46.464Z,96073.58
2019-05-07T17:29:18.056Z,96065.06
2019-05-07T17:31:49.388Z,96071.22
2019-05-07T17:34:22.157Z,96077.75
2019-05-07T17:36:53.763Z,96084.41
2019-05-07T17:39:24.968Z,96086.14
2019-05-07T17:41:56.180Z,96079.03
2019-05-07T17:44:28.220Z,96079.40
2019-05-07T17:47:01.792Z,96083.95
2019-05-07T17:49:33.999Z,96080.56
2019-05-07T17:52:05.680Z,96082.22
2019-05-07T17:54:36.996Z,96082.09
2019-05-07T17:57:08.300Z,96082.34
2019-05-07T17:59:39.507Z,96078.98
2019-05-07T18:02:24.362Z,96078.63
2019-05-07T18:04:55.635Z,96079.35
2019-05-07T18:07:28.485Z,96086.20
2019-05-07T18:10:02.265Z,96081.22
2019-05-07T18:12:33.144Z,96082.81
2019-05-07T18:15:06.639Z,96086.41
2019-05-07T18:18:00.876Z,96088.03
2019-05-07T18:20:32.958Z,96088.74
2019-05-07T18:23:06.904Z,96091.34
2019-05-07T18:25:37.712Z,96096.19
2019-05-07T18:28:08.937Z,96091.08
2019-05-07T18:30:40.293Z,96094.92
2019-05-07T18:33:25.570Z,96095.70
2019-05-07T18:35:56.159Z,96098.14
2019-05-07T18:38:27.650Z,96089.91
2019-05-07T18:40:58.928Z,96091.75
2019-05-07T18:43:30.209Z,96099.53
2019-05-07T18:46:02.264Z,96098.55
2019-05-07T18:48:37.190Z,96095.39
2019-05-07T18:51:08.529Z,96094.65
2019-05-07T18:53:52.113Z,96101.60
2019-05-07T18:56:24.033Z,96104.23
2019-05-07T18:58:55.226Z,96105.43
2019-05-07T19:01:28.377Z,96101.91
2019-05-07T19:04:01.934Z,96105.70
2019-05-07T19:06:32.983Z,96104.27
2019-05-07T19:09:07.344Z,96106.22
2019-05-07T19:11:38.727Z,96105.39
2019-05-07T19:14:10.337Z,96111.84
2019-05-07T19:16:43.069Z,96108.73
2019-05-07T19:19:14.762Z,96110.38
2019-05-07T19:21:46.303Z,96109.66
2019-05-07T19:24:19.449Z,96105.91
2019-05-07T19:26:52.857Z,96102.52
2019-05-07T19:29:24.191Z,96104.47
2019-05-07T19:31:55.683Z,96107.91
2019-05-07T19:34:27.049Z,96103.63
2019-05-07T19:36:58.333Z,96107.63
2019-05-07T19:39:29.668Z,96105.70
2019-05-07T19:42:02.606Z,96100.98
2019-05-07T19:44:34.527Z,96095.53
2019-05-07T19:47:05.864Z,96098.33
2019-05-07T19:49:37.323Z,96097.42
2019-05-07T19:52:12.429Z,96089.53
2019-05-07T19:54:57.925Z,96093.41
2019-05-07T19:57:23.203Z,96093.70
2019-05-07T19:59:54.565Z,96096.50
2019-05-07T20:02:32.004Z,96092.68
2019-05-07T20:05:04.756Z,96084.53
2019-05-07T20:07:36.307Z,96086.75
2019-05-07T20:10:17.265Z,96081.17
2019-05-07T20:12:48.705Z,96088.71
2019-05-07T20:15:22.404Z,96092.98
2019-05-07T20:17:57.784Z,96091.05
2019-05-07T20:20:29.304Z,96098.70
2019-05-07T20:23:06.730Z,96100.38
2019-05-07T20:25:38.128Z,96096.56
2019-05-07T20:28:12.587Z,96098.42
2019-05-07T20:30:44.777Z,96091.70
2019-05-07T20:33:26.416Z,96090.27
2019-05-07T20:35:57.793Z,96092.77
2019-05-07T20:38:29.092Z,96093.87
2019-05-07T20:41:02.103Z,96089.50
2019-05-07T20:43:33.619Z,96090.92
2019-05-07T20:46:04.840Z,96089.45
2019-05-07T20:48:36.380Z,96093.94
2019-05-07T20:51:07.769Z,96096.97
2019-05-07T20:53:56.291Z,96090.13
2019-05-07T20:56:32.242Z,96092.77
2019-05-07T20:59:03.943Z,96089.59
2019-05-07T21:01:35.349Z,96084.56
2019-05-07T21:04:06.615Z,96080.77
2019-05-07T21:06:38.048Z,96087.26
2019-05-07T21:09:09.751Z,96096.65
2019-05-07T21:11:43.054Z,96089.45
2019-05-07T21:14:14.152Z,96092.55
2019-05-07T21:16:45.426Z,96092.20
2019-05-07T21:19:16.813Z,96087.45
2019-05-07T21:21:48.110Z,96082.30
2019-05-07T21:24:19.408Z,96085.02
2019-05-07T21:26:52.902Z,96090.03
2019-05-07T21:29:23.828Z,96091.06
2019-05-07T21:31:55.420Z,96087.98
2019-05-07T21:34:27.294Z,96091.72
2019-05-07T21:36:58.522Z,96095.62
2019-05-07T21:39:29.803Z,96094.17
2019-05-07T21:42:02.603Z,96094.93
2019-05-07T21:44:33.791Z,96091.12
2019-05-07T21:47:05.013Z,96084.13
2019-05-07T21:49:36.468Z,96080.84
2019-05-07T21:52:09.898Z,96077.58
2019-05-07T21:55:04.098Z,96086.19
2019-05-07T21:57:49.110Z,96093.91
2019-05-07T22:00:45.308Z,96083.17
2019-05-07T22:03:17.535Z,96079.22
2019-05-07T22:05:51.751Z,96083.36
2019-05-07T22:08:28.122Z,96080.28
2019-05-07T22:10:59.342Z,96081.11
2019-05-07T22:13:32.764Z,96080.56
2019-05-07T22:16:04.023Z,96081.20
2019-05-07T22:18:35.333Z,96075.48
2019-05-07T22:21:12.701Z,96074.47
2019-05-07T22:23:44.115Z,96072.12
2019-05-07T22:26:22.656Z,96067.75
2019-05-07T22:28:55.444Z,96067.36
2019-05-07T22:31:44.279Z,96063.17
2019-05-07T22:34:30.331Z,96055.47
2019-05-07T22:37:06.278Z,96059.91
2019-05-07T22:39:42.515Z,96058.99
2019-05-07T22:42:13.831Z,96051.81
2019-05-07T22:44:45.241Z,96057.35
2019-05-07T22:47:23.050Z,96054.56
2019-05-07T22:49:54.611Z,96049.16
2019-05-07T22:52:26.024Z,96049.71
2019-05-07T22:54:57.422Z,96047.78
2019-05-07T22:57:46.222Z,96043.56
2019-05-07T23:00:26.066Z,96038.63
2019-05-07T23:02:57.524Z,96031.25
2019-05-07T23:05:28.753Z,96037.42
2019-05-07T23:08:02.406Z,96032.85
2019-05-07T23:10:33.477Z,96032.14
2019-05-07T23:13:04.751Z,96025.84
2019-05-07T23:15:35.986Z,96025.44
2019-05-07T23:18:07.201Z,96026.09
2019-05-07T23:20:38.642Z,96026.77
2019-05-07T23:23:13.906Z,96028.69
2019-05-07T23:25:43.478Z,96019.02
2019-05-07T23:28:14.699Z,96022.56
2019-05-07T23:30:46.714Z,96016.04
2019-05-07T23:33:18.085Z,96020.52
2019-05-07T23:35:49.412Z,96019.94
2019-05-07T23:38:22.584Z,96020.61
2019-05-07T23:41:18.081Z,96019.09
2019-05-07T23:44:07.422Z,96016.38
2019-05-07T23:46:39.049Z,96007.98
2019-05-07T23:49:12.380Z,96005.62
2019-05-07T23:51:43.391Z,96001.52
2019-05-07T23:54:15.085Z,95998.03
2019-05-07T23:56:46.923Z,95989.72
2019-05-07T23:59:18.193Z,95998.40
